sensor_id;sensor_type;location;lat;lon;timestamp;pressure;altitude;pressure_sealevel;temperature;humidity
55347;BME280;41218;55.700;38.270;2023-03-04T00:04:46;98170.06;;;-1.09;68.94
55347;BME280;41218;55.700;38.270;2023-03-04T00:09:46;98154.13;;;-1.10;68.98
55347;BME280;41218;55.700;38.270;2023-03-04T00:14:47;98145.84;;;-1.14;68.62
55347;BME280;41218;55.700;38.270;2023-03-04T00:19:47;98147.44;;;-1.13;68.87
55347;BME280;41218;55.700;38.270;2023-03-04T00:24:48;98137.81;;;-1.23;68.86
55347;BME280;41218;55.700;38.270;2023-03-04T00:29:49;98136.69;;;-1.22;68.58
55347;BME280;41218;55.700;38.270;2023-03-04T00:34:49;98125.03;;;-1.22;69.36
55347;BME280;41218;55.700;38.270;2023-03-04T00:39:50;98118.03;;;-1.23;68.93
55347;BME280;41218;55.700;38.270;2023-03-04T00:44:50;98119.28;;;-1.21;69.11
55347;BME280;41218;55.700;38.270;2023-03-04T00:49:51;98110.69;;;-1.23;69.14
55347;BME280;41218;55.700;38.270;2023-03-04T00:54:52;98104.63;;;-1.19;68.81
55347;BME280;41218;55.700;38.270;2023-03-04T00:59:52;98104.66;;;-1.28;69.12
55347;BME280;41218;55.700;38.270;2023-03-04T01:04:53;98105.59;;;-1.24;69.13
55347;BME280;41218;55.700;38.270;2023-03-04T01:09:53;98089.22;;;-1.28;69.06
55347;BME280;41218;55.700;38.270;2023-03-04T01:14:54;98083.66;;;-1.31;68.94
55347;BME280;41218;55.700;38.270;2023-03-04T01:19:54;98077.25;;;-1.27;68.83
55347;BME280;41218;55.700;38.270;2023-03-04T01:24:55;98071.34;;;-1.29;69.04
55347;BME280;41218;55.700;38.270;2023-03-04T01:29:55;98064.69;;;-1.31;69.24
55347;BME280;41218;55.700;38.270;2023-03-04T01:34:56;98057.88;;;-1.37;68.92
55347;BME280;41218;55.700;38.270;2023-03-04T01:39:56;98068.38;;;-1.36;69.33
55347;BME280;41218;55.700;38.270;2023-03-04T01:44:57;98073.94;;;-1.32;69.10
55347;BME280;41218;55.700;38.270;2023-03-04T01:50:00;98082.84;;;-1.32;69.37
55347;BME280;41218;55.700;38.270;2023-03-04T01:55:08;98062.50;;;-1.38;68.82
55347;BME280;41218;55.700;38.270;2023-03-04T02:00:20;98074.94;;;-1.37;69.25
55347;BME280;41218;55.700;38.270;2023-03-04T02:05:21;98060.66;;;-1.46;68.99
55347;BME280;41218;55.700;38.270;2023-03-04T02:10:22;98074.88;;;-1.49;69.04
55347;BME280;41218;55.700;38.270;2023-03-04T02:15:23;98056.91;;;-1.54;69.20
55347;BME280;41218;55.700;38.270;2023-03-04T02:25:44;98057.09;;;-1.59;69.61
55347;BME280;41218;55.700;38.270;2023-03-04T02:30:45;98048.03;;;-1.63;69.30
55347;BME280;41218;55.700;38.270;2023-03-04T02:35:46;98046.13;;;-1.63;70.03
55347;BME280;41218;55.700;38.270;2023-03-04T02:40:50;98039.91;;;-1.63;69.80
55347;BME280;41218;55.700;38.270;2023-03-04T02:45:52;98012.91;;;-1.72;69.44
55347;BME280;41218;55.700;38.270;2023-03-04T02:50:53;98014.94;;;-1.69;69.54
55347;BME280;41218;55.700;38.270;2023-03-04T02:55:54;98004.22;;;-1.65;69.79
55347;BME280;41218;55.700;38.270;2023-03-04T03:00:54;98002.00;;;-1.63;69.88
55347;BME280;41218;55.700;38.270;2023-03-04T03:05:55;97998.03;;;-1.66;69.84
55347;BME280;41218;55.700;38.270;2023-03-04T03:10:56;97990.69;;;-1.65;69.84
55347;BME280;41218;55.700;38.270;2023-03-04T03:15:56;97972.06;;;-1.67;69.76
55347;BME280;41218;55.700;38.270;2023-03-04T03:20:57;97969.69;;;-1.68;69.88
55347;BME280;41218;55.700;38.270;2023-03-04T03:25:57;97960.88;;;-1.65;69.73
55347;BME280;41218;55.700;38.270;2023-03-04T03:30:58;97962.03;;;-1.66;69.78
55347;BME280;41218;55.700;38.270;2023-03-04T03:35:58;97958.97;;;-1.65;69.39
55347;BME280;41218;55.700;38.270;2023-03-04T03:40:59;97941.47;;;-1.67;69.82
55347;BME280;41218;55.700;38.270;2023-03-04T03:45:59;97949.72;;;-1.64;69.74
55347;BME280;41218;55.700;38.270;2023-03-04T03:51:00;97949.41;;;-1.62;70.08
55347;BME280;41218;55.700;38.270;2023-03-04T03:56:01;97937.19;;;-1.68;69.62
55347;BME280;41218;55.700;38.270;2023-03-04T04:01:01;97940.81;;;-1.64;69.81
55347;BME280;41218;55.700;38.270;2023-03-04T04:06:02;97928.16;;;-1.72;70.22
55347;BME280;41218;55.700;38.270;2023-03-04T04:11:02;97931.06;;;-1.77;69.96
55347;BME280;41218;55.700;38.270;2023-03-04T04:16:03;97910.13;;;-1.89;69.89
55347;BME280;41218;55.700;38.270;2023-03-04T04:21:04;97928.88;;;-1.84;70.11
55347;BME280;41218;55.700;38.270;2023-03-04T04:26:05;97917.25;;;-1.85;70.80
55347;BME280;41218;55.700;38.270;2023-03-04T04:31:07;97904.38;;;-1.88;70.35
55347;BME280;41218;55.700;38.270;2023-03-04T04:36:12;97917.03;;;-1.79;70.49
55347;BME280;41218;55.700;38.270;2023-03-04T04:41:23;97897.97;;;-1.83;70.67
55347;BME280;41218;55.700;38.270;2023-03-04T04:46:24;97897.75;;;-1.78;70.70
55347;BME280;41218;55.700;38.270;2023-03-04T04:51:25;97906.25;;;-1.67;70.76
55347;BME280;41218;55.700;38.270;2023-03-04T04:56:26;97885.78;;;-1.77;70.40
55347;BME280;41218;55.700;38.270;2023-03-04T05:01:27;97896.44;;;-1.72;70.58
55347;BME280;41218;55.700;38.270;2023-03-04T05:06:28;97892.59;;;-1.71;71.01
55347;BME280;41218;55.700;38.270;2023-03-04T05:11:28;97888.31;;;-1.72;70.93
55347;BME280;41218;55.700;38.270;2023-03-04T05:16:29;97888.22;;;-1.63;70.57
55347;BME280;41218;55.700;38.270;2023-03-04T05:21:29;97887.19;;;-1.58;70.71
55347;BME280;41218;55.700;38.270;2023-03-04T05:26:30;97883.38;;;-1.57;70.91
55347;BME280;41218;55.700;38.270;2023-03-04T05:31:30;97887.44;;;-1.51;70.62
55347;BME280;41218;55.700;38.270;2023-03-04T05:36:31;97886.31;;;-1.50;70.42
55347;BME280;41218;55.700;38.270;2023-03-04T05:41:31;97887.91;;;-1.49;70.84
55347;BME280;41218;55.700;38.270;2023-03-04T05:46:32;97878.53;;;-1.52;71.12
55347;BME280;41218;55.700;38.270;2023-03-04T05:51:32;97882.47;;;-1.49;70.88
55347;BME280;41218;55.700;38.270;2023-03-04T05:56:33;97880.88;;;-1.50;70.77
55347;BME280;41218;55.700;38.270;2023-03-04T06:01:33;97881.47;;;-1.45;70.78
55347;BME280;41218;55.700;38.270;2023-03-04T06:06:34;97875.84;;;-1.39;70.82
55347;BME280;41218;55.700;38.270;2023-03-04T06:11:35;97861.59;;;-1.36;70.87
55347;BME280;41218;55.700;38.270;2023-03-04T06:16:35;97860.97;;;-1.21;70.97
55347;BME280;41218;55.700;38.270;2023-03-04T06:21:36;97861.63;;;-0.99;71.12
55347;BME280;41218;55.700;38.270;2023-03-04T06:26:36;97847.16;;;-0.91;70.78
55347;BME280;41218;55.700;38.270;2023-03-04T06:31:37;97852.22;;;-0.77;71.15
55347;BME280;41218;55.700;38.270;2023-03-04T06:36:38;97856.50;;;-0.64;70.83
55347;BME280;41218;55.700;38.270;2023-03-04T06:41:39;97850.59;;;-0.54;70.44
55347;BME280;41218;55.700;38.270;2023-03-04T06:46:40;97838.94;;;-0.42;70.76
55347;BME280;41218;55.700;38.270;2023-03-04T06:51:40;97830.09;;;-0.39;70.37
55347;BME280;41218;55.700;38.270;2023-03-04T06:56:41;97839.19;;;-0.19;70.32
55347;BME280;41218;55.700;38.270;2023-03-04T07:01:41;97832.22;;;-0.04;70.32
55347;BME280;41218;55.700;38.270;2023-03-04T07:06:42;97837.84;;;0.03;70.03
55347;BME280;41218;55.700;38.270;2023-03-04T07:11:43;97817.97;;;-0.01;69.77
55347;BME280;41218;55.700;38.270;2023-03-04T07:16:43;97821.75;;;0.10;69.73
55347;BME280;41218;55.700;38.270;2023-03-04T07:21:44;97807.13;;;0.15;69.95
55347;BME280;41218;55.700;38.270;2023-03-04T07:26:46;97802.31;;;0.24;69.59
55347;BME280;41218;55.700;38.270;2023-03-04T07:31:46;97790.31;;;0.41;69.36
55347;BME280;41218;55.700;38.270;2023-03-04T07:36:47;97793.81;;;0.57;69.34
55347;BME280;41218;55.700;38.270;2023-03-04T07:41:47;97770.22;;;0.62;68.93
55347;BME280;41218;55.700;38.270;2023-03-04T07:46:48;97774.16;;;0.80;69.08
55347;BME280;41218;55.700;38.270;2023-03-04T07:51:48;97771.16;;;0.85;68.70
55347;BME280;41218;55.700;38.270;2023-03-04T07:56:49;97760.44;;;0.92;68.45
55347;BME280;41218;55.700;38.270;2023-03-04T08:01:50;97767.28;;;1.02;68.29
55347;BME280;41218;55.700;38.270;2023-03-04T08:06:50;97749.00;;;1.03;68.14
55347;BME280;41218;55.700;38.270;2023-03-04T08:11:51;97744.44;;;1.07;68.15
55347;BME280;41218;55.700;38.270;2023-03-04T08:16:51;97744.31;;;1.19;67.91
55347;BME280;41218;55.700;38.270;2023-03-04T08:21:52;97745.75;;;1.32;67.96
55347;BME280;41218;55.700;38.270;2023-03-04T08:26:53;97716.09;;;1.27;67.41
55347;BME280;41218;55.700;38.270;2023-03-04T08:31:54;97726.06;;;1.39;67.46
55347;BME280;41218;55.700;38.270;2023-03-04T08:36:54;97725.13;;;1.51;67.14
55347;BME280;41218;55.700;38.270;2023-03-04T08:41:55;97713.50;;;1.54;66.96
55347;BME280;41218;55.700;38.270;2023-03-04T08:46:55;97689.91;;;1.62;66.96
55347;BME280;41218;55.700;38.270;2023-03-04T08:51:56;97694.06;;;1.75;66.70
55347;BME280;41218;55.700;38.270;2023-03-04T08:56:56;97690.31;;;1.83;65.97
55347;BME280;41218;55.700;38.270;2023-03-04T09:01:57;97689.72;;;1.93;66.02
55347;BME280;41218;55.700;38.270;2023-03-04T09:06:58;97689.13;;;2.04;66.18
55347;BME280;41218;55.700;38.270;2023-03-04T09:11:58;97684.25;;;2.16;66.28
55347;BME280;41218;55.700;38.270;2023-03-04T09:16:59;97672.22;;;2.17;65.70
55347;BME280;41218;55.700;38.270;2023-03-04T09:21:59;97679.22;;;2.18;65.55
55347;BME280;41218;55.700;38.270;2023-03-04T09:27:01;97667.69;;;2.29;65.50
55347;BME280;41218;55.700;38.270;2023-03-04T09:32:01;97653.34;;;2.32;65.52
55347;BME280;41218;55.700;38.270;2023-03-04T09:37:02;97647.53;;;2.33;65.08
55347;BME280;41218;55.700;38.270;2023-03-04T09:42:03;97634.00;;;2.40;64.90
55347;BME280;41218;55.700;38.270;2023-03-04T09:47:10;97623.03;;;2.37;64.55
55347;BME280;41218;55.700;38.270;2023-03-04T09:57:53;97603.72;;;2.46;64.34
55347;BME280;41218;55.700;38.270;2023-03-04T10:03:26;97598.81;;;2.58;64.10
55347;BME280;41218;55.700;38.270;2023-03-04T10:19:18;97580.31;;;2.75;64.63
55347;BME280;41218;55.700;38.270;2023-03-04T10:24:24;97564.78;;;2.79;63.77
55347;BME280;41218;55.700;38.270;2023-03-04T10:29:28;97571.28;;;2.71;63.68
55347;BME280;41218;55.700;38.270;2023-03-04T10:34:30;97552.06;;;2.60;64.01
55347;BME280;41218;55.700;38.270;2023-03-04T10:39:39;97543.97;;;2.67;63.30
55347;BME280;41218;55.700;38.270;2023-03-04T10:45:00;97545.78;;;2.56;63.11
55347;BME280;41218;55.700;38.270;2023-03-04T10:50:03;97526.13;;;2.43;63.48
55347;BME280;41218;55.700;38.270;2023-03-04T10:55:16;97515.56;;;2.38;63.41
55347;BME280;41218;55.700;38.270;2023-03-04T11:05:24;97492.34;;;2.51;63.72
55347;BME280;41218;55.700;38.270;2023-03-04T11:10:30;97492.53;;;2.66;63.57
55347;BME280;41218;55.700;38.270;2023-03-04T11:15:52;97479.72;;;2.70;62.82
55347;BME280;41218;55.700;38.270;2023-03-04T11:20:54;97462.63;;;2.76;63.19
55347;BME280;41218;55.700;38.270;2023-03-04T11:25:59;97455.19;;;2.73;63.22
55347;BME280;41218;55.700;38.270;2023-03-04T11:31:04;97445.03;;;2.70;63.18
55347;BME280;41218;55.700;38.270;2023-03-04T11:36:30;97453.63;;;2.72;62.82
55347;BME280;41218;55.700;38.270;2023-03-04T11:41:35;97446.59;;;2.71;63.35
55347;BME280;41218;55.700;38.270;2023-03-04T12:02:22;97426.38;;;2.38;64.02
55347;BME280;41218;55.700;38.270;2023-03-04T12:17:59;97409.16;;;2.31;64.26
55347;BME280;41218;55.700;38.270;2023-03-04T12:23:20;97398.97;;;2.24;64.16
55347;BME280;41218;55.700;38.270;2023-03-04T12:39:36;97381.28;;;2.11;64.76
55347;BME280;41218;55.700;38.270;2023-03-04T12:50:30;97378.38;;;1.96;65.19
55347;BME280;41218;55.700;38.270;2023-03-04T12:55:39;97363.91;;;1.89;65.72
55347;BME280;41218;55.700;38.270;2023-03-04T13:00:47;97355.22;;;1.79;65.98
55347;BME280;41218;55.700;38.270;2023-03-04T13:16:41;97327.88;;;1.69;66.50
55347;BME280;41218;55.700;38.270;2023-03-04T13:21:45;97322.72;;;1.64;66.61
55347;BME280;41218;55.700;38.270;2023-03-04T13:26:47;97314.06;;;1.54;67.07
55347;BME280;41218;55.700;38.270;2023-03-04T13:32:03;97306.56;;;1.44;67.48
55347;BME280;41218;55.700;38.270;2023-03-04T13:37:28;97293.63;;;1.37;67.94
55347;BME280;41218;55.700;38.270;2023-03-04T13:42:42;97284.97;;;1.28;67.91
55347;BME280;41218;55.700;38.270;2023-03-04T13:47:44;97272.03;;;1.22;67.83
55347;BME280;41218;55.700;38.270;2023-03-04T13:52:47;97270.03;;;1.18;68.03
55347;BME280;41218;55.700;38.270;2023-03-04T13:57:51;97256.75;;;1.13;68.36
55347;BME280;41218;55.700;38.270;2023-03-04T14:02:51;97248.56;;;1.10;68.16
55347;BME280;41218;55.700;38.270;2023-03-04T14:07:52;97240.72;;;1.05;68.50
55347;BME280;41218;55.700;38.270;2023-03-04T14:12:55;97239.94;;;1.04;68.69
55347;BME280;41218;55.700;38.270;2023-03-04T14:17:58;97228.16;;;0.96;68.58
55347;BME280;41218;55.700;38.270;2023-03-04T14:23:03;97219.94;;;0.93;69.10
55347;BME280;41218;55.700;38.270;2023-03-04T14:28:16;97220.28;;;0.88;69.17
55347;BME280;41218;55.700;38.270;2023-03-04T14:33:20;97197.28;;;0.82;69.02
55347;BME280;41218;55.700;38.270;2023-03-04T14:38:36;97193.41;;;0.83;69.19
55347;BME280;41218;55.700;38.270;2023-03-04T14:48:58;97191.84;;;0.82;69.06
55347;BME280;41218;55.700;38.270;2023-03-04T14:53:59;97176.59;;;0.77;69.10
55347;BME280;41218;55.700;38.270;2023-03-04T14:58:59;97183.63;;;0.78;69.39
55347;BME280;41218;55.700;38.270;2023-03-04T15:09:06;97160.22;;;0.70;69.62
55347;BME280;41218;55.700;38.270;2023-03-04T15:14:41;97161.03;;;0.74;70.08
55347;BME280;41218;55.700;38.270;2023-03-04T15:19:41;97156.31;;;0.71;69.54
55347;BME280;41218;55.700;38.270;2023-03-04T15:24:42;97145.00;;;0.65;69.53
55347;BME280;41218;55.700;38.270;2023-03-04T15:29:42;97141.13;;;0.66;69.70
55347;BME280;41218;55.700;38.270;2023-03-04T15:34:43;97134.84;;;0.62;69.63
55347;BME280;41218;55.700;38.270;2023-03-04T15:39:44;97132.19;;;0.66;69.92
55347;BME280;41218;55.700;38.270;2023-03-04T15:44:44;97123.22;;;0.62;69.82
55347;BME280;41218;55.700;38.270;2023-03-04T15:49:45;97118.91;;;0.60;69.85
55347;BME280;41218;55.700;38.270;2023-03-04T15:54:48;97108.84;;;0.61;69.81
55347;BME280;41218;55.700;38.270;2023-03-04T15:59:50;97115.47;;;0.64;69.95
55347;BME280;41218;55.700;38.270;2023-03-04T16:04:51;97111.16;;;0.59;69.82
55347;BME280;41218;55.700;38.270;2023-03-04T16:10:04;97089.75;;;0.57;70.11
55347;BME280;41218;55.700;38.270;2023-03-04T16:15:14;97089.00;;;0.57;70.38
55347;BME280;41218;55.700;38.270;2023-03-04T16:20:18;97086.28;;;0.57;70.17
55347;BME280;41218;55.700;38.270;2023-03-04T16:25:20;97073.41;;;0.54;70.49
55347;BME280;41218;55.700;38.270;2023-03-04T16:30:25;97065.94;;;0.47;70.53
55347;BME280;41218;55.700;38.270;2023-03-04T16:35:26;97046.47;;;0.42;70.71
55347;BME280;41218;55.700;38.270;2023-03-04T16:40:29;97062.47;;;0.50;70.72
55347;BME280;41218;55.700;38.270;2023-03-04T16:45:30;97055.13;;;0.51;70.86
55347;BME280;41218;55.700;38.270;2023-03-04T16:50:31;97045.09;;;0.55;71.29
55347;BME280;41218;55.700;38.270;2023-03-04T16:55:36;97032.91;;;0.45;70.71
55347;BME280;41218;55.700;38.270;2023-03-04T17:00:37;97033.69;;;0.46;70.65
55347;BME280;41218;55.700;38.270;2023-03-04T17:05:37;97022.41;;;0.44;70.99
55347;BME280;41218;55.700;38.270;2023-03-04T17:10:38;97020.09;;;0.46;71.04
55347;BME280;41218;55.700;38.270;2023-03-04T17:15:38;97019.03;;;0.54;70.97
55347;BME280;41218;55.700;38.270;2023-03-04T17:20:42;97022.16;;;0.56;71.11
55347;BME280;41218;55.700;38.270;2023-03-04T17:25:43;97009.41;;;0.60;71.27
55347;BME280;41218;55.700;38.270;2023-03-04T17:30:43;96998.88;;;0.55;70.72
55347;BME280;41218;55.700;38.270;2023-03-04T17:35:44;97004.72;;;0.57;70.88
55347;BME280;41218;55.700;38.270;2023-03-04T17:40:45;96983.22;;;0.45;71.02
55347;BME280;41218;55.700;38.270;2023-03-04T17:45:46;96976.22;;;0.44;71.34
55347;BME280;41218;55.700;38.270;2023-03-04T17:50:50;96978.16;;;0.43;71.24
55347;BME280;41218;55.700;38.270;2023-03-04T17:55:53;96982.13;;;0.49;71.40
55347;BME280;41218;55.700;38.270;2023-03-04T18:01:00;96985.69;;;0.57;71.71
55347;BME280;41218;55.700;38.270;2023-03-04T18:06:01;96972.84;;;0.54;71.58
55347;BME280;41218;55.700;38.270;2023-03-04T18:11:02;96984.56;;;0.62;71.65
55347;BME280;41218;55.700;38.270;2023-03-04T18:16:03;96973.28;;;0.59;71.46
55347;BME280;41218;55.700;38.270;2023-03-04T18:21:04;96973.34;;;0.67;71.62
55347;BME280;41218;55.700;38.270;2023-03-04T18:26:05;96973.69;;;0.62;71.30
55347;BME280;41218;55.700;38.270;2023-03-04T18:31:06;96974.44;;;0.58;71.46
55347;BME280;41218;55.700;38.270;2023-03-04T18:36:08;96961.97;;;0.54;71.40
55347;BME280;41218;55.700;38.270;2023-03-04T18:41:11;96969.00;;;0.58;71.37
55347;BME280;41218;55.700;38.270;2023-03-04T18:46:37;96972.53;;;0.59;72.11
55347;BME280;41218;55.700;38.270;2023-03-04T18:51:39;96962.75;;;0.54;71.77
55347;BME280;41218;55.700;38.270;2023-03-04T18:56:53;96962.72;;;0.51;71.79
55347;BME280;41218;55.700;38.270;2023-03-04T19:01:57;96953.81;;;0.54;71.40
55347;BME280;41218;55.700;38.270;2023-03-04T19:06:59;96955.72;;;0.50;71.73
55347;BME280;41218;55.700;38.270;2023-03-04T19:11:59;96962.72;;;0.51;71.58
55347;BME280;41218;55.700;38.270;2023-03-04T19:17:01;96967.34;;;0.50;71.50
55347;BME280;41218;55.700;38.270;2023-03-04T19:22:03;96959.19;;;0.47;71.61
55347;BME280;41218;55.700;38.270;2023-03-04T19:27:03;96946.63;;;0.38;71.92
55347;BME280;41218;55.700;38.270;2023-03-04T19:32:04;96960.69;;;0.44;71.80
55347;BME280;41218;55.700;38.270;2023-03-04T19:37:05;96957.19;;;0.44;71.62
55347;BME280;41218;55.700;38.270;2023-03-04T19:42:06;96946.28;;;0.40;71.76
55347;BME280;41218;55.700;38.270;2023-03-04T19:47:06;96938.06;;;0.33;71.75
55347;BME280;41218;55.700;38.270;2023-03-04T19:52:07;96944.31;;;0.37;72.03
55347;BME280;41218;55.700;38.270;2023-03-04T19:57:07;96948.53;;;0.34;72.20
55347;BME280;41218;55.700;38.270;2023-03-04T20:02:08;96939.97;;;0.32;72.22
55347;BME280;41218;55.700;38.270;2023-03-04T20:07:09;96949.72;;;0.33;71.70
55347;BME280;41218;55.700;38.270;2023-03-04T20:12:09;96939.16;;;0.28;71.92
55347;BME280;41218;55.700;38.270;2023-03-04T20:17:12;96936.06;;;0.30;71.89
55347;BME280;41218;55.700;38.270;2023-03-04T20:22:14;96941.88;;;0.28;71.67
55347;BME280;41218;55.700;38.270;2023-03-04T20:27:14;96930.59;;;0.26;71.65
55347;BME280;41218;55.700;38.270;2023-03-04T20:32:16;96941.88;;;0.28;71.28
55347;BME280;41218;55.700;38.270;2023-03-04T20:37:17;96927.47;;;0.24;71.54
55347;BME280;41218;55.700;38.270;2023-03-04T20:42:17;96932.06;;;0.20;71.92
55347;BME280;41218;55.700;38.270;2023-03-04T20:47:18;96912.22;;;0.12;71.61
55347;BME280;41218;55.700;38.270;2023-03-04T20:52:18;96920.78;;;0.18;71.26
55347;BME280;41218;55.700;38.270;2023-03-04T20:57:19;96935.91;;;0.15;71.27
55347;BME280;41218;55.700;38.270;2023-03-04T21:02:19;96927.75;;;0.15;71.31
55347;BME280;41218;55.700;38.270;2023-03-04T21:07:22;96939.81;;;0.18;71.53
55347;BME280;41218;55.700;38.270;2023-03-04T21:12:25;96930.47;;;0.15;70.94
55347;BME280;41218;55.700;38.270;2023-03-04T21:17:26;96922.66;;;0.10;71.09
55347;BME280;41218;55.700;38.270;2023-03-04T21:22:26;96917.25;;;0.10;71.28
55347;BME280;41218;55.700;38.270;2023-03-04T21:27:27;96933.19;;;0.15;70.99
55347;BME280;41218;55.700;38.270;2023-03-04T21:32:27;96934.63;;;0.06;70.88
55347;BME280;41218;55.700;38.270;2023-03-04T21:37:28;96925.66;;;0.02;70.83
55347;BME280;41218;55.700;38.270;2023-03-04T21:42:29;96912.25;;;-0.14;70.95
55347;BME280;41218;55.700;38.270;2023-03-04T21:47:29;96922.09;;;-0.03;71.16
55347;BME280;41218;55.700;38.270;2023-03-04T21:52:30;96934.97;;;0.01;70.99
55347;BME280;41218;55.700;38.270;2023-03-04T21:57:30;96931.00;;;-0.06;70.91
55347;BME280;41218;55.700;38.270;2023-03-04T22:02:32;96923.69;;;-0.02;70.89
55347;BME280;41218;55.700;38.270;2023-03-04T22:07:32;96940.69;;;-0.05;70.84
55347;BME280;41218;55.700;38.270;2023-03-04T22:12:33;96920.09;;;-0.09;71.04
55347;BME280;41218;55.700;38.270;2023-03-04T22:17:34;96935.22;;;-0.08;70.95
55347;BME280;41218;55.700;38.270;2023-03-04T22:22:34;96936.78;;;-0.07;70.96
55347;BME280;41218;55.700;38.270;2023-03-04T22:27:35;96930.50;;;-0.15;70.97
55347;BME280;41218;55.700;38.270;2023-03-04T22:32:35;96931.66;;;-0.16;70.63
55347;BME280;41218;55.700;38.270;2023-03-04T22:37:36;96930.84;;;-0.16;70.59
55347;BME280;41218;55.700;38.270;2023-03-04T22:42:36;96930.78;;;-0.24;70.83
55347;BME280;41218;55.700;38.270;2023-03-04T22:47:38;96926.47;;;-0.25;70.71
55347;BME280;41218;55.700;38.270;2023-03-04T22:52:38;96926.06;;;-0.27;70.33
55347;BME280;41218;55.700;38.270;2023-03-04T22:57:41;96938.16;;;-0.21;70.95
55347;BME280;41218;55.700;38.270;2023-03-04T23:02:42;96923.75;;;-0.25;70.70
55347;BME280;41218;55.700;38.270;2023-03-04T23:07:42;96919.91;;;-0.24;70.62
55347;BME280;41218;55.700;38.270;2023-03-04T23:12:43;96912.47;;;-0.30;70.59
55347;BME280;41218;55.700;38.270;2023-03-04T23:17:44;96925.66;;;-0.29;70.49
55347;BME280;41218;55.700;38.270;2023-03-04T23:22:46;96920.59;;;-0.30;70.63
55347;BME280;41218;55.700;38.270;2023-03-04T23:27:47;96918.94;;;-0.38;70.52
55347;BME280;41218;55.700;38.270;2023-03-04T23:32:48;96910.38;;;-0.41;70.64
55347;BME280;41218;55.700;38.270;2023-03-04T23:37:48;96915.84;;;-0.37;70.29
55347;BME280;41218;55.700;38.270;2023-03-04T23:42:49;96922.50;;;-0.34;70.48
55347;BME280;41218;55.700;38.270;2023-03-04T23:47:50;96914.22;;;-0.42;70.57
55347;BME280;41218;55.700;38.270;2023-03-04T23:52:50;96925.44;;;-0.43;70.49
55347;BME280;41218;55.700;38.270;2023-03-04T23:57:51;96904.78;;;-0.51;70.56
